Doddsville, MS

5:04 AM CDT on September 02, 2014 (GMT -0500)
Cleveland Municipal | Change Station
CLOSE
Current Station
Airport
Location: Cleveland Municipal Airport,
Elevation: 138 ft
Nearby Weather Stations

Elev 138 ft 33.76 °N, 90.76 °W | Updated 9 minutes ago

Clear
Clear
75 °F
Feels Like 75 °F
N
5
Wind Variable Wind from South

Today
High -- | Low -- °F
--% Chance of Precip.
Yesterday
High -- | Low -- °F
Precip. -- in
6:36 AM 7:26 PM
Waxing Crescent, 50% visible
Pressure 29.98 in
Visibility 10.0 miles
Clouds Clear
Dew Point 75 °F
Humidity 100%
Rainfall 0.00 in
Snow Depth Not available.
UV 0 out of 12
Pollen 9.90 out of 12
Air Quality Not available.
Flu Activity Not available.
METAR KRNV 020955Z AUTO 19004KT 10SM CLR 24/24 A2998 RMK AO2 T02370237

More Conditions Fewer Conditions

Pressure 29.98 in
Visibility 10.0 miles
Clouds Clear
Dew Point 75 °F
Humidity 100%
Rainfall 0.00 in
Snow Depth Not available.
UV 0 out of 12
Pollen 9.90 out of 12
Air Quality Not available.
Flu Activity Not available.
METAR KRNV 020955Z AUTO 19004KT 10SM CLR 24/24 A2998 RMK AO2 T02370237

More Conditions Fewer Conditions

10-Day Weather Forecast

Almanac

Astronomy

Sep. 02, 2014 Rise Set
Actual Time 6:36 AM CDT 7:26 PM CDT
Civil Twilight 6:11 AM CDT 7:51 PM CDT
Nautical Twilight 5:41 AM CDT 8:21 PM CDT
Astronomical Twilight 5:10 AM CDT 8:52 PM CDT
Moon 2:00 PM CDT No Moon Set
Length of Visible Light 13h 40m
Length of Day
12h 49m
Tomorrow will be 1m 59s shorter.
Waxing Crescent, 50% of the Moon is Illuminated
Today
Waxing Crescent
Sep 2
First Quarter
Sep 8
Full
Sep 15
Last Quarter
Sep 24
New

Today's Extremes

State Highs State Lows

Community

WunderPhotos

Upload Photos

1,749,611 photos uploaded!

WunderBlogs® & News

Nearby

Snow Depth

Station Depth Elevation
No new snow has been reported.

Earthquake Activity

City Distance Mag. Time & Date
No recent earthquake activity has been reported nearby.
Minimum magnitude displayed is 2.5.

Coastal Water Temperatures

Place Temperature
No Stations Reporting

Nearby Weather Stations